Airfield :
LOGIN :

Register | Disclaimer

   EN    FR    IT 

 










Legend :    VFR   Marginal VFR   IFR   Intensive IFR   Very Intensive IFR
Visi :
Ceiling :
>= 8 km
>= 3000ft
5 to 8 km
1000 to 3000 ft
1500m to 5 km
500 to 1000 ft
800 to 1500m
200 to 500 ft
< 800m
< 200 ft
Symbols :   Thunderstorms  Fog  Heavy snow  Heavy precipitations  Wind > 20 kt
SIGMETs :     Misc.  Thunderstorms  Icing  Turbulence  Mountain Waves  Volcanic Ashes







- Airport Elevation : 327 ft
- IATA code : BHX
- Download approach charts


EGBB - Birmingham

CURRENT METAR :
  • 152120Z 05003KT 4000 BR OVC004 10/10 Q1015

EXPIRED METARs :
  • 152050Z 04005KT 010V070 2400 BR OVC004 10/10 Q1015
  • 152020Z 05006KT 2500 BR OVC004 10/10 Q1015
  • 151950Z 03005KT 2400 BR OVC005 10/10 Q1015
  • 151920Z 06006KT 3800 BR OVC006 11/10 Q1015
  • 151850Z 06005KT 9999 OVC009 11/10 Q1015

TAF TAF EGBB
Valid from the 15 at 18:00 until the 16 at 18:00 UTC


151704Z 1518/1618 06010KT 9999 BKN006
BECMG 1518/1520 5000 -DZ
TEMPO 1518/1612 2500 BR BKN004
BECMG 1521/1524 VRB03KT
PROB40 1521/1609 0300 FG BKN001
BECMG 1609/1612 21010KT 9999 NSW BKN012
BECMG 1612/1615 SCT020
ATIS : +44 121 780 0910
No reported NOTAMs for that airfield.



MET'MAP, your aeronautical weather chart ! - Copyright ORBIFLY December 2007 - Disclaimer

ORBIFLY MET'MAP TEAM :

Programming & Development : Alexandra Zaïnal
Concept & Development : Baudouin d'Aumeries
Co-Development & Prog : Marc-Olivier Méhu
Technical & hardware support : Manuel Goepfert

Contact : metmap@orbifly.com




SOURCES & CREDITS :

   NOAA